createdAt,value
2019-05-05T00:01:26.360Z,2.50
2019-05-05T00:04:01.157Z,2.37
2019-05-05T00:06:31.432Z,1.82
2019-05-05T00:09:01.675Z,2.02
2019-05-05T00:11:35.314Z,2.27
2019-05-05T00:14:10.160Z,2.00
2019-05-05T00:16:54.646Z,1.98
2019-05-05T00:19:32.496Z,2.50
2019-05-05T00:21:57.431Z,2.08
2019-05-05T00:24:27.617Z,2.02
2019-05-05T00:26:57.880Z,2.05
2019-05-05T00:29:28.123Z,2.17
2019-05-05T00:31:58.319Z,2.15
2019-05-05T00:34:28.567Z,2.30
2019-05-05T00:36:58.769Z,1.67
2019-05-05T00:39:28.998Z,2.02
2019-05-05T00:41:59.186Z,1.62
2019-05-05T00:44:29.367Z,1.57
2019-05-05T00:47:07.106Z,1.87
2019-05-05T00:49:46.390Z,1.67
2019-05-05T00:52:11.737Z,1.80
2019-05-05T00:54:41.918Z,1.85
2019-05-05T00:57:12.136Z,1.85
2019-05-05T00:59:42.307Z,1.90
2019-05-05T01:02:20.545Z,1.92
2019-05-05T01:05:27.983Z,1.98
2019-05-05T01:07:59.413Z,2.27
2019-05-05T01:10:29.859Z,2.20
2019-05-05T01:13:00.432Z,1.47
2019-05-05T01:15:30.878Z,2.10
2019-05-05T01:18:02.299Z,2.02
2019-05-05T01:20:34.328Z,1.95
2019-05-05T01:23:04.790Z,2.25
2019-05-05T01:25:37.636Z,2.10
2019-05-05T01:28:07.999Z,1.80
2019-05-05T01:30:39.850Z,2.00
2019-05-05T01:33:14.631Z,2.12
2019-05-05T01:35:44.926Z,2.45
2019-05-05T01:38:19.842Z,2.40
2019-05-05T01:40:54.752Z,2.52
2019-05-05T01:43:25.384Z,2.67
2019-05-05T01:45:55.628Z,2.30
2019-05-05T01:48:26.403Z,2.75
2019-05-05T01:50:56.607Z,1.95
2019-05-05T01:53:26.810Z,2.40
2019-05-05T01:55:56.998Z,2.20
2019-05-05T01:58:27.200Z,2.17
2019-05-05T02:00:57.387Z,2.40
2019-05-05T02:05:58.222Z,2.37
2019-05-05T02:08:28.426Z,2.70
2019-05-05T02:10:58.608Z,2.70
2019-05-05T02:13:28.797Z,2.90
2019-05-05T02:15:59.000Z,2.80
2019-05-05T02:18:29.209Z,2.80
2019-05-05T02:21:05.142Z,2.83
2019-05-05T02:23:36.095Z,3.42
2019-05-05T02:26:06.912Z,3.27
2019-05-05T02:28:38.751Z,3.45
2019-05-05T02:31:11.411Z,2.90
2019-05-05T02:33:41.901Z,3.60
2019-05-05T02:36:12.261Z,3.27
2019-05-05T02:38:42.528Z,3.72
2019-05-05T02:41:15.350Z,3.00
2019-05-05T02:43:45.065Z,3.17
2019-05-05T02:46:30.154Z,3.72
2019-05-05T02:49:00.804Z,3.25
2019-05-05T02:51:31.045Z,4.00
2019-05-05T02:54:04.269Z,4.20
2019-05-05T02:56:45.287Z,3.90
2019-05-05T02:59:17.140Z,4.87
2019-05-05T03:01:48.956Z,4.20
2019-05-05T03:04:19.171Z,4.53
2019-05-05T03:06:49.448Z,4.25
2019-05-05T03:09:19.636Z,3.92
2019-05-05T03:11:49.819Z,4.80
2019-05-05T03:14:20.095Z,5.33
2019-05-05T03:16:51.411Z,4.25
2019-05-05T03:19:23.553Z,4.65
2019-05-05T03:21:54.571Z,4.67
2019-05-05T03:24:24.936Z,4.97
2019-05-05T03:26:55.107Z,4.73
2019-05-05T03:29:25.317Z,4.58
2019-05-05T03:31:56.469Z,4.67
2019-05-05T03:34:27.059Z,4.87
2019-05-05T03:36:57.243Z,4.85
2019-05-05T03:39:29.157Z,5.00
2019-05-05T03:45:14.478Z,4.45
2019-05-05T03:47:45.027Z,5.33
2019-05-05T03:50:15.307Z,5.25
2019-05-05T03:52:45.489Z,5.30
2019-05-05T03:55:15.690Z,4.90
2019-05-05T03:57:45.868Z,4.92
2019-05-05T04:00:25.916Z,5.15
2019-05-05T04:03:00.782Z,5.22
2019-05-05T04:05:34.023Z,5.53
2019-05-05T04:08:04.704Z,5.95
2019-05-05T04:10:34.903Z,6.40
2019-05-05T04:13:06.351Z,5.62
2019-05-05T04:15:38.134Z,5.78
2019-05-05T04:18:10.018Z,5.47
2019-05-05T04:20:40.311Z,6.05
2019-05-05T04:23:10.474Z,5.23
2019-05-05T04:25:40.780Z,4.80
2019-05-05T04:28:13.651Z,5.25
2019-05-05T04:30:56.756Z,4.70
2019-05-05T04:33:26.969Z,4.53
2019-05-05T04:35:57.235Z,5.03
2019-05-05T04:38:27.412Z,5.00
2019-05-05T04:40:57.610Z,4.33
2019-05-05T04:43:28.977Z,4.72
2019-05-05T04:45:59.179Z,4.75
2019-05-05T04:48:31.021Z,4.67
2019-05-05T04:51:06.617Z,4.22
2019-05-05T04:53:41.191Z,3.80
2019-05-05T04:56:11.362Z,3.80
2019-05-05T04:58:41.571Z,3.70
2019-05-05T05:01:13.154Z,3.70
2019-05-05T05:03:51.809Z,4.15
2019-05-05T05:06:23.786Z,4.42
2019-05-05T05:08:53.987Z,4.45
2019-05-05T05:11:24.622Z,3.77
2019-05-05T05:13:55.236Z,3.75
2019-05-05T05:16:25.440Z,4.20
2019-05-05T05:18:55.691Z,4.47
2019-05-05T05:21:26.042Z,4.07
2019-05-05T05:24:14.758Z,4.57
2019-05-05T05:26:45.035Z,3.62
2019-05-05T05:29:15.266Z,4.03
2019-05-05T05:31:45.487Z,3.72
2019-05-05T05:34:15.684Z,3.50
2019-05-05T05:36:45.887Z,3.83
2019-05-05T05:42:08.179Z,3.58
2019-05-05T05:44:40.367Z,3.62
2019-05-05T05:47:28.727Z,3.10
2019-05-05T05:50:19.241Z,3.50
2019-05-05T05:52:49.998Z,3.55
2019-05-05T05:55:20.175Z,3.70
2019-05-05T05:57:50.407Z,3.77
2019-05-05T06:00:20.657Z,4.25
2019-05-05T06:02:50.916Z,4.20
2019-05-05T06:07:54.414Z,4.47
2019-05-05T06:10:27.309Z,4.85
2019-05-05T06:12:57.059Z,4.10
2019-05-05T06:15:27.323Z,5.47
2019-05-05T06:17:57.708Z,4.83
2019-05-05T06:20:29.167Z,4.30
2019-05-05T06:22:59.593Z,4.23
2019-05-05T06:25:29.867Z,3.77
2019-05-05T06:28:00.178Z,4.33
2019-05-05T06:30:30.430Z,3.02
2019-05-05T06:33:00.733Z,4.67
2019-05-05T06:35:30.997Z,4.47
2019-05-05T06:38:01.699Z,4.85
2019-05-05T06:40:39.363Z,4.70
2019-05-05T06:43:17.267Z,4.78
2019-05-05T06:45:53.553Z,4.62
2019-05-05T06:48:23.892Z,4.60
2019-05-05T06:50:54.475Z,4.33
2019-05-05T06:53:43.644Z,5.47
2019-05-05T06:56:34.179Z,4.95
2019-05-05T06:59:24.385Z,4.67
2019-05-05T07:02:14.517Z,4.03
2019-05-05T07:05:04.120Z,4.30
2019-05-05T07:07:53.759Z,3.20
2019-05-05T07:14:46.655Z,2.55
2019-05-05T07:17:16.411Z,3.02
2019-05-05T07:19:46.925Z,2.85
2019-05-05T07:24:48.006Z,2.90
2019-05-05T07:27:20.829Z,2.98
2019-05-05T07:29:51.033Z,3.40
2019-05-05T07:32:21.223Z,3.30
2019-05-05T07:35:04.082Z,3.12
2019-05-05T07:37:34.580Z,3.62
2019-05-05T07:40:07.898Z,3.70
2019-05-05T07:42:38.255Z,3.90
2019-05-05T07:45:20.260Z,3.67
2019-05-05T07:47:43.691Z,3.02
2019-05-05T07:50:26.435Z,2.98
2019-05-05T07:52:46.422Z,3.55
2019-05-05T07:55:16.612Z,3.35
2019-05-05T07:57:46.843Z,4.05
2019-05-05T08:00:17.212Z,3.90
2019-05-05T08:02:47.498Z,4.40
2019-05-05T08:05:17.697Z,4.03
2019-05-05T08:07:48.014Z,3.65
2019-05-05T08:10:19.384Z,3.90
2019-05-05T08:12:54.050Z,4.00
2019-05-05T08:15:24.594Z,3.90
2019-05-05T08:18:13.880Z,3.77
2019-05-05T08:20:45.869Z,4.70
2019-05-05T08:23:29.127Z,4.20
2019-05-05T08:26:05.569Z,3.95
2019-05-05T08:28:40.287Z,4.03
2019-05-05T08:31:14.354Z,4.20
2019-05-05T08:33:44.277Z,3.50
2019-05-05T08:36:14.921Z,3.50
2019-05-05T08:38:45.130Z,3.90
2019-05-05T08:41:15.305Z,3.83
2019-05-05T08:46:15.972Z,3.40
2019-05-05T08:48:46.260Z,2.62
2019-05-05T08:51:16.442Z,3.98
2019-05-05T08:53:48.305Z,3.15
2019-05-05T08:56:18.611Z,3.95
2019-05-05T08:58:49.873Z,3.35
2019-05-05T09:01:20.274Z,3.45
2019-05-05T09:03:50.515Z,3.75
2019-05-05T09:06:20.784Z,3.87
2019-05-05T09:08:50.994Z,4.53
2019-05-05T09:11:21.215Z,4.90
2019-05-05T09:13:53.435Z,4.20
2019-05-05T09:16:24.213Z,4.03
2019-05-05T09:19:01.263Z,4.12
2019-05-05T09:21:31.543Z,4.00
2019-05-05T09:24:19.159Z,4.27
2019-05-05T09:26:54.395Z,4.62
2019-05-05T09:29:43.813Z,4.50
2019-05-05T09:32:14.055Z,3.90
2019-05-05T09:34:44.564Z,4.50
2019-05-05T09:37:14.839Z,5.33
2019-05-05T09:39:45.178Z,4.40
2019-05-05T09:42:15.448Z,4.50
2019-05-05T09:44:45.695Z,6.05
2019-05-05T09:47:15.947Z,4.92
2019-05-05T09:49:46.204Z,4.45
2019-05-05T09:52:16.410Z,5.08
2019-05-05T09:54:46.742Z,4.58
2019-05-05T09:57:17.965Z,5.42
2019-05-05T10:02:17.620Z,5.50
2019-05-05T10:04:48.794Z,5.37
2019-05-05T10:07:19.322Z,6.70
2019-05-05T10:09:51.258Z,4.20
2019-05-05T10:12:23.106Z,5.47
2019-05-05T10:14:55.896Z,5.42
2019-05-05T10:17:26.174Z,5.08
2019-05-05T10:19:56.371Z,5.12
2019-05-05T10:22:26.583Z,4.83
2019-05-05T10:25:15.413Z,5.40
2019-05-05T10:27:47.772Z,4.28
2019-05-05T10:30:18.235Z,4.55
2019-05-05T10:32:48.459Z,4.12
2019-05-05T10:35:19.187Z,5.53
2019-05-05T10:37:51.124Z,4.10
2019-05-05T10:40:23.435Z,4.00
2019-05-05T10:42:54.052Z,4.17
2019-05-05T10:45:24.734Z,4.33
2019-05-05T10:47:56.070Z,3.90
2019-05-05T10:50:26.281Z,3.67
2019-05-05T10:52:56.502Z,4.33
2019-05-05T10:55:26.762Z,3.90
2019-05-05T10:57:56.997Z,4.55
2019-05-05T11:00:44.346Z,3.52
2019-05-05T11:03:15.117Z,4.30
2019-05-05T11:05:45.635Z,3.77
2019-05-05T11:08:15.955Z,4.40
2019-05-05T11:10:46.168Z,3.42
2019-05-05T11:13:17.952Z,3.47
2019-05-05T11:16:04.057Z,3.17
2019-05-05T11:18:34.679Z,2.83
2019-05-05T11:23:35.663Z,2.42
2019-05-05T11:26:06.424Z,3.15
2019-05-05T11:28:36.637Z,2.60
2019-05-05T11:31:06.995Z,3.22
2019-05-05T11:33:43.583Z,2.42
2019-05-05T11:36:15.953Z,2.50
2019-05-05T11:38:46.190Z,2.50
2019-05-05T11:41:16.420Z,3.35
2019-05-05T11:44:00.412Z,3.10
2019-05-05T11:46:30.635Z,2.80
2019-05-05T11:49:00.926Z,3.60
2019-05-05T11:51:31.310Z,3.27
2019-05-05T11:54:01.613Z,3.75
2019-05-05T11:56:33.960Z,4.17
2019-05-05T11:59:04.651Z,3.70
2019-05-05T12:01:34.953Z,3.60
2019-05-05T12:04:08.744Z,3.45
2019-05-05T12:06:39.021Z,3.65
2019-05-05T12:09:13.873Z,4.12
2019-05-05T12:11:44.101Z,3.55
2019-05-05T12:14:16.011Z,3.15
2019-05-05T12:16:46.586Z,3.62
2019-05-05T12:19:17.112Z,3.85
2019-05-05T12:21:47.821Z,3.25
2019-05-05T12:24:20.871Z,3.30
2019-05-05T12:26:54.252Z,3.30
2019-05-05T12:29:25.396Z,3.80
2019-05-05T12:31:57.358Z,3.50
2019-05-05T12:34:28.734Z,3.12
2019-05-05T12:37:00.699Z,3.20
2019-05-05T12:39:33.617Z,3.05
2019-05-05T12:42:05.313Z,3.55
2019-05-05T12:44:54.600Z,2.90
2019-05-05T12:47:30.427Z,2.20
2019-05-05T12:50:01.000Z,2.52
2019-05-05T12:52:33.551Z,2.20
2019-05-05T12:55:05.637Z,2.40
2019-05-05T12:57:36.192Z,2.58
2019-05-05T13:00:07.716Z,2.47
2019-05-05T13:02:38.664Z,2.80
2019-05-05T13:05:09.638Z,2.27
2019-05-05T13:07:40.750Z,2.77
2019-05-05T13:10:13.777Z,2.77
2019-05-05T13:12:45.847Z,2.90
2019-05-05T13:15:17.740Z,2.30
2019-05-05T13:20:37.176Z,2.00
2019-05-05T13:23:09.667Z,2.33
2019-05-05T13:25:58.542Z,2.05
2019-05-05T13:28:27.034Z,2.25
2019-05-05T13:30:57.600Z,2.02
2019-05-05T13:33:28.473Z,1.90
2019-05-05T13:35:59.272Z,2.00
2019-05-05T13:38:29.892Z,1.70
2019-05-05T13:41:00.861Z,1.70
2019-05-05T13:43:31.135Z,1.83
2019-05-05T13:46:09.559Z,2.10
2019-05-05T13:48:39.791Z,2.40
2019-05-05T13:51:15.648Z,2.12
2019-05-05T13:53:46.012Z,2.08
2019-05-05T13:56:16.190Z,1.85
2019-05-05T13:58:46.859Z,1.82
2019-05-05T14:01:35.459Z,1.92
2019-05-05T14:04:05.826Z,1.70
2019-05-05T14:06:36.090Z,1.70
2019-05-05T14:09:06.560Z,1.67
2019-05-05T14:11:38.330Z,1.00
2019-05-05T14:14:09.877Z,1.37
2019-05-05T14:16:58.547Z,1.60
2019-05-05T14:19:28.815Z,1.60
2019-05-05T14:21:59.009Z,1.80
2019-05-05T14:24:30.852Z,1.40
2019-05-05T14:27:01.384Z,2.12
2019-05-05T14:29:36.648Z,2.30
2019-05-05T14:32:08.500Z,1.80
2019-05-05T14:34:54.637Z,1.55
2019-05-05T14:37:34.064Z,1.90
2019-05-05T14:40:06.430Z,2.10
2019-05-05T14:42:36.693Z,2.50
2019-05-05T14:45:06.899Z,2.20
2019-05-05T14:47:37.086Z,2.95
2019-05-05T14:50:07.596Z,2.72
2019-05-05T14:52:38.944Z,3.27
2019-05-05T14:55:09.767Z,3.00
2019-05-05T14:57:39.951Z,2.67
2019-05-05T15:00:13.660Z,3.40
2019-05-05T15:03:03.645Z,3.50
2019-05-05T15:05:54.762Z,3.00
2019-05-05T15:08:35.747Z,2.77
2019-05-05T15:11:07.631Z,3.05
2019-05-05T15:13:37.887Z,3.40
2019-05-05T15:16:10.073Z,3.08
2019-05-05T15:18:40.275Z,2.95
2019-05-05T15:21:10.469Z,2.98
2019-05-05T15:23:40.754Z,2.75
2019-05-05T15:26:12.591Z,2.95
2019-05-05T15:28:45.226Z,2.72
2019-05-05T15:31:14.811Z,2.30
2019-05-05T15:33:45.054Z,2.47
2019-05-05T15:36:15.238Z,2.72
2019-05-05T15:38:45.473Z,2.20
2019-05-05T15:41:15.736Z,3.25
2019-05-05T15:43:45.980Z,2.98
2019-05-05T15:46:16.221Z,2.80
2019-05-05T15:48:46.471Z,2.50
2019-05-05T15:51:18.575Z,2.90
2019-05-05T15:53:48.783Z,3.00
2019-05-05T15:56:18.974Z,2.70
2019-05-05T15:58:49.186Z,3.02
2019-05-05T16:01:19.415Z,2.70
2019-05-05T16:03:49.614Z,2.75
2019-05-05T16:06:19.802Z,2.85
2019-05-05T16:08:53.871Z,4.30
2019-05-05T16:11:23.418Z,3.92
2019-05-05T16:13:54.496Z,3.70
2019-05-05T16:16:43.705Z,3.60
2019-05-05T16:19:26.380Z,3.72
2019-05-05T16:22:10.363Z,3.08
2019-05-05T16:24:44.490Z,2.98
2019-05-05T16:27:21.806Z,2.52
2019-05-05T16:29:46.023Z,2.72
2019-05-05T16:32:21.747Z,2.90
2019-05-05T16:34:48.315Z,2.37
2019-05-05T16:37:18.515Z,2.15
2019-05-05T16:39:48.697Z,2.40
2019-05-05T16:42:19.948Z,2.42
2019-05-05T16:44:50.129Z,2.42
2019-05-05T16:47:20.571Z,2.70
2019-05-05T16:49:50.773Z,3.30
2019-05-05T16:52:23.960Z,2.90
2019-05-05T16:55:04.375Z,2.90
2019-05-05T16:57:36.540Z,2.72
2019-05-05T17:00:06.207Z,3.17
2019-05-05T17:02:39.067Z,2.40
2019-05-05T17:05:10.706Z,3.12
2019-05-05T17:07:41.060Z,4.57
2019-05-05T17:10:11.314Z,4.92
2019-05-05T17:12:41.846Z,5.17
2019-05-05T17:15:14.642Z,5.03
2019-05-05T17:17:58.652Z,3.70
2019-05-05T17:20:33.696Z,3.30
2019-05-05T17:23:05.659Z,3.30
2019-05-05T17:25:35.843Z,3.05
2019-05-05T17:28:06.051Z,3.00
2019-05-05T17:30:36.241Z,2.90
2019-05-05T17:33:06.450Z,3.15
2019-05-05T17:35:36.683Z,3.12
2019-05-05T17:38:07.964Z,3.10
2019-05-05T17:40:43.363Z,3.80
2019-05-05T17:43:25.088Z,3.27
2019-05-05T17:46:06.946Z,3.33
2019-05-05T17:48:54.019Z,2.90
2019-05-05T17:51:26.197Z,2.85
2019-05-05T17:53:58.188Z,3.22
2019-05-05T17:56:28.378Z,3.27
2019-05-05T17:58:58.582Z,2.75
2019-05-05T18:01:28.759Z,2.75
2019-05-05T18:03:59.931Z,3.55
2019-05-05T18:06:37.620Z,4.53
2019-05-05T18:09:10.519Z,3.33
2019-05-05T18:11:45.416Z,3.37
2019-05-05T18:14:33.528Z,2.90
2019-05-05T18:17:10.320Z,3.05
2019-05-05T18:19:43.607Z,3.33
2019-05-05T18:22:14.224Z,2.90
2019-05-05T18:24:47.551Z,3.97
2019-05-05T18:27:17.843Z,3.12
2019-05-05T18:29:48.339Z,3.77
2019-05-05T18:32:23.484Z,4.20
2019-05-05T18:34:55.353Z,3.77
2019-05-05T18:37:25.682Z,4.40
2019-05-05T18:39:56.045Z,3.67
2019-05-05T18:42:26.346Z,4.60
2019-05-05T18:45:03.677Z,5.20
2019-05-05T18:47:35.736Z,3.95
2019-05-05T18:50:06.932Z,4.65
2019-05-05T18:52:37.194Z,4.70
2019-05-05T18:55:07.488Z,4.28
2019-05-05T18:57:37.776Z,4.00
2019-05-05T19:00:09.679Z,3.87
2019-05-05T19:02:44.298Z,3.80
2019-05-05T19:05:25.565Z,3.55
2019-05-05T19:08:01.184Z,3.40
2019-05-05T19:10:31.398Z,3.87
2019-05-05T19:13:01.714Z,3.10
2019-05-05T19:15:32.064Z,3.80
2019-05-05T19:18:04.351Z,3.70
2019-05-05T19:20:36.470Z,3.52
2019-05-05T19:23:06.718Z,4.20
2019-05-05T19:25:37.008Z,3.72
2019-05-05T19:28:07.263Z,3.83
2019-05-05T19:30:39.112Z,4.00
2019-05-05T19:33:09.342Z,3.52
2019-05-05T19:35:44.070Z,3.00
2019-05-05T19:38:15.560Z,3.52
2019-05-05T19:40:47.416Z,3.30
2019-05-05T19:43:17.680Z,3.47
2019-05-05T19:45:47.900Z,3.87
2019-05-05T19:48:18.087Z,3.72
2019-05-05T19:50:55.745Z,4.08
2019-05-05T19:53:26.772Z,3.40
2019-05-05T19:55:57.047Z,3.22
2019-05-05T19:58:27.241Z,3.27
2019-05-05T20:03:35.273Z,3.45
2019-05-05T20:06:05.870Z,3.45
2019-05-05T20:08:41.829Z,3.37
2019-05-05T20:11:09.646Z,3.45
2019-05-05T20:13:39.826Z,3.58
2019-05-05T20:16:23.856Z,3.20
2019-05-05T20:18:54.677Z,3.58
2019-05-05T20:21:25.111Z,3.12
2019-05-05T20:23:58.270Z,3.67
2019-05-05T20:26:31.286Z,3.45
2019-05-05T20:29:13.629Z,3.02
2019-05-05T20:31:34.596Z,3.33
2019-05-05T20:34:13.536Z,3.55
2019-05-05T20:37:04.366Z,3.75
2019-05-05T20:39:34.483Z,2.47
2019-05-05T20:42:05.038Z,3.37
2019-05-05T20:44:35.383Z,3.50
2019-05-05T20:47:05.568Z,3.85
2019-05-05T20:49:35.907Z,3.67
2019-05-05T20:52:06.091Z,3.07
2019-05-05T20:54:36.295Z,3.83
2019-05-05T20:57:06.475Z,3.40
2019-05-05T20:59:36.674Z,3.75
2019-05-05T21:02:07.015Z,3.77
2019-05-05T21:04:37.225Z,3.10
2019-05-05T21:07:07.412Z,3.77
2019-05-05T21:09:37.646Z,3.62
2019-05-05T21:12:07.823Z,3.42
2019-05-05T21:14:39.001Z,3.65
2019-05-05T21:17:09.205Z,3.58
2019-05-05T21:19:39.483Z,3.58
2019-05-05T21:22:30.392Z,3.42
2019-05-05T21:25:00.659Z,3.30
2019-05-05T21:27:30.862Z,3.55
2019-05-05T21:30:03.886Z,3.62
2019-05-05T21:32:34.042Z,3.52
2019-05-05T21:35:06.213Z,4.10
2019-05-05T21:37:36.434Z,3.22
2019-05-05T21:40:07.283Z,4.00
2019-05-05T21:42:37.526Z,3.72
2019-05-05T21:45:07.763Z,3.72
2019-05-05T21:47:43.780Z,4.03
2019-05-05T21:50:27.583Z,4.47
2019-05-05T21:53:04.468Z,4.33
2019-05-05T21:55:44.537Z,4.72
2019-05-05T21:58:22.365Z,4.83
2019-05-05T22:00:54.622Z,4.75
2019-05-05T22:03:34.565Z,5.97
2019-05-05T22:06:04.959Z,6.30
2019-05-05T22:08:35.825Z,5.90
2019-05-05T22:11:05.996Z,7.33
2019-05-05T22:13:36.687Z,6.20
2019-05-05T22:16:07.062Z,5.87
2019-05-05T22:18:37.263Z,6.00
2019-05-05T22:24:19.251Z,4.53
2019-05-05T22:26:49.433Z,5.97
2019-05-05T22:29:19.750Z,6.17
2019-05-05T22:31:50.034Z,6.12
2019-05-05T22:34:40.951Z,4.65
2019-05-05T22:37:11.131Z,6.80
2019-05-05T22:39:41.335Z,6.47
2019-05-05T22:42:11.528Z,6.70
2019-05-05T22:44:41.787Z,7.28
2019-05-05T22:47:13.787Z,4.62
2019-05-05T22:49:44.335Z,6.45
2019-05-05T22:52:14.724Z,7.53
2019-05-05T22:54:44.931Z,7.53
2019-05-05T22:57:15.472Z,8.10
2019-05-05T22:59:58.324Z,7.25
2019-05-05T23:02:30.327Z,7.92
2019-05-05T23:05:04.081Z,7.40
2019-05-05T23:07:35.096Z,7.92
2019-05-05T23:10:06.883Z,7.97
2019-05-05T23:12:37.850Z,7.78
2019-05-05T23:15:09.706Z,7.30
2019-05-05T23:17:50.829Z,7.67
2019-05-05T23:20:51.122Z,7.78
2019-05-05T23:23:23.984Z,8.00
2019-05-05T23:25:58.379Z,7.55
2019-05-05T23:28:28.587Z,7.58
2019-05-05T23:30:58.754Z,7.50
2019-05-05T23:33:28.967Z,7.37
2019-05-05T23:35:59.212Z,8.25
2019-05-05T23:38:29.805Z,7.43
2019-05-05T23:41:00.055Z,7.80
2019-05-05T23:43:30.263Z,7.83
2019-05-05T23:46:00.446Z,8.13
2019-05-05T23:48:30.903Z,7.50
2019-05-05T23:51:01.083Z,7.50
2019-05-05T23:53:31.283Z,7.45
2019-05-05T23:56:03.856Z,8.03
2019-05-05T23:58:34.789Z,6.80
